Time;durP1;ratioP1;P1;durP2;ratioP2;P2;SDS_P1;SDS_P2;PMS_P1;PMS_P2;Temp;Humidity;BMP_temperature;BMP_pressure;BME280_temperature;BME280_humidity;BME280_pressure;Samples;Min_cycle;Max_cycle;Signal;HPM_P1;HPM_P2
2021/09/19 00:09:57;;;;;;;0.20;0.10;;;21.50;99.90;;;;;;20945691;28;20224;-71
2021/09/19 00:20:13;;;;;;;0.20;0.10;;;21.70;99.90;;;;;;20947936;28;20269;-71
2021/09/19 00:30:16;;;;;;;0.30;0.20;;;21.90;99.90;;;;;;20945513;28;20232;-71
2021/09/19 00:40:21;;;;;;;0.20;0.00;;;21.60;99.90;;;;;;20929013;28;20200;-71
2021/09/19 00:50:26;;;;;;;0.20;0.20;;;21.80;99.90;;;;;;20944242;28;20682;-72
2021/09/19 01:00:32;;;;;;;5.67;0.77;;;21.50;99.90;;;;;;20946081;22;20230;-68
2021/09/19 01:10:36;;;;;;;0.20;0.00;;;21.40;99.90;;;;;;21027472;28;20250;-67
2021/09/19 01:20:41;;;;;;;0.20;0.00;;;21.30;99.90;;;;;;21025750;28;20205;-68
2021/09/19 01:30:46;;;;;;;3.20;1.70;;;21.20;99.90;;;;;;21024013;28;20690;-68
2021/09/19 01:40:50;;;;;;;0.20;0.00;;;21.20;99.90;;;;;;21022168;28;20214;-67
2021/09/19 01:50:55;;;;;;;0.20;0.10;;;20.90;99.90;;;;;;21025983;28;20950;-67
2021/09/19 02:01:09;;;;;;;0.20;0.00;;;20.80;99.90;;;;;;21023190;28;20719;-68
2021/09/19 02:11:15;;;;;;;0.27;0.27;;;20.70;99.90;;;;;;21023215;28;20282;-66
2021/09/19 02:21:21;;;;;;;0.40;0.10;;;20.70;99.90;;;;;;21022721;28;20402;-67
2021/09/19 02:31:26;;;;;;;0.20;0.20;;;20.40;99.90;;;;;;21030629;28;20558;-68
2021/09/19 02:41:29;;;;;;;0.60;0.60;;;20.60;99.90;;;;;;21038352;28;20216;-67
2021/09/19 02:51:34;;;;;;;0.20;0.10;;;20.50;99.90;;;;;;21037608;28;20196;-68
2021/09/19 03:01:38;;;;;;;0.20;0.10;;;20.30;99.90;;;;;;21037437;28;20262;-68
2021/09/19 03:11:44;;;;;;;0.20;0.10;;;20.30;99.90;;;;;;21034313;28;20695;-67
2021/09/19 03:21:48;;;;;;;0.20;0.00;;;20.20;99.90;;;;;;21033730;28;20737;-67
2021/09/19 03:31:52;;;;;;;0.20;0.10;;;20.20;99.90;;;;;;21033112;28;20199;-67
2021/09/19 03:41:56;;;;;;;0.20;0.10;;;19.80;99.90;;;;;;21032176;28;20490;-67
2021/09/19 03:52:03;;;;;;;0.20;0.10;;;19.30;99.90;;;;;;21048225;28;20235;-67
2021/09/19 04:02:07;;;;;;;0.20;0.10;;;19.00;99.90;;;;;;21033466;28;20226;-67
2021/09/19 04:12:12;;;;;;;0.20;0.07;;;18.80;99.90;;;;;;21031854;28;20207;-67
2021/09/19 04:22:15;;;;;;;0.23;0.23;;;18.60;99.90;;;;;;21030579;28;20231;-67
2021/09/19 04:32:21;;;;;;;0.20;0.10;;;18.40;99.90;;;;;;21028524;28;20203;-66
2021/09/19 04:42:24;;;;;;;0.20;0.13;;;18.30;99.90;;;;;;21028073;28;20606;-67
2021/09/19 04:52:29;;;;;;;0.50;0.50;;;17.90;99.90;;;;;;21025716;28;20532;-66
2021/09/19 05:02:33;;;;;;;0.20;0.10;;;18.00;99.90;;;;;;21025635;28;20255;-67
2021/09/19 05:12:39;;;;;;;2.13;0.83;;;17.70;99.90;;;;;;21026192;28;20208;-68
2021/09/19 05:22:43;;;;;;;0.20;0.20;;;17.60;99.90;;;;;;21061829;28;20302;-67
2021/09/19 05:32:49;;;;;;;0.20;0.20;;;17.60;99.90;;;;;;21109104;28;20191;-67
2021/09/19 05:42:54;;;;;;;0.20;0.10;;;17.40;99.90;;;;;;21107992;28;20431;-67
2021/09/19 05:52:59;;;;;;;0.20;0.10;;;17.20;99.90;;;;;;21110286;28;20355;-65
2021/09/19 06:03:02;;;;;;;0.20;0.10;;;17.10;99.90;;;;;;21112799;28;20250;-68
2021/09/19 06:13:08;;;;;;;0.20;0.00;;;17.70;99.90;;;;;;21124723;28;20668;-67
2021/09/19 06:23:14;;;;;;;0.20;0.10;;;17.90;99.90;;;;;;21080149;28;20230;-65
2021/09/19 06:33:19;;;;;;;0.20;0.00;;;17.80;99.90;;;;;;21038513;28;20207;-65
2021/09/19 06:43:23;;;;;;;0.20;0.10;;;17.60;99.90;;;;;;21037986;28;20776;-66
2021/09/19 06:53:29;;;;;;;0.20;0.10;;;17.70;99.90;;;;;;21037116;28;20278;-67
2021/09/19 07:03:33;;;;;;;0.20;0.10;;;17.90;99.90;;;;;;21082700;28;20235;-68
2021/09/19 07:13:38;;;;;;;0.20;0.00;;;18.00;99.90;;;;;;21099910;28;20531;-65
2021/09/19 07:23:42;;;;;;;0.20;0.10;;;17.80;99.90;;;;;;21099118;28;20222;-66
2021/09/19 07:33:47;;;;;;;0.20;0.10;;;18.10;99.90;;;;;;21096935;28;20199;-68
2021/09/19 07:43:52;;;;;;;0.20;0.10;;;18.40;99.90;;;;;;21117845;28;20323;-65
2021/09/19 07:53:57;;;;;;;0.20;0.10;;;18.70;99.90;;;;;;21112318;28;20192;-66
2021/09/19 08:04:01;;;;;;;0.20;0.10;;;18.90;99.90;;;;;;21115399;28;20555;-65
2021/09/19 08:14:06;;;;;;;1.40;0.63;;;19.40;99.90;;;;;;21113496;28;20222;-66
2021/09/19 08:24:11;;;;;;;0.20;0.10;;;19.70;99.90;;;;;;21060820;28;20236;-65
2021/09/19 08:34:16;;;;;;;0.30;0.30;;;20.00;99.90;;;;;;21026742;28;20669;-65
2021/09/19 08:44:20;;;;;;;0.20;0.20;;;20.20;99.90;;;;;;21026638;28;20219;-65
2021/09/19 08:54:25;;;;;;;0.20;0.10;;;20.50;99.90;;;;;;21024464;28;20471;-66
2021/09/19 09:04:29;;;;;;;0.20;0.00;;;21.20;99.90;;;;;;21065712;28;20573;-68
2021/09/19 09:14:41;;;;;;;0.47;0.10;;;21.50;99.90;;;;;;21107552;28;20544;-67
2021/09/19 09:24:45;;;;;;;0.85;0.10;;;22.10;99.90;;;;;;21105652;28;20219;-68
2021/09/19 09:35:11;;;;;;;0.20;0.10;;;22.60;99.90;;;;;;21087689;28;20200;-68
2021/09/19 09:45:25;;;;;;;0.20;0.10;;;23.20;99.90;;;;;;21104948;28;20576;-70
2021/09/19 09:55:31;;;;;;;2.28;0.45;;;23.30;99.90;;;;;;21106110;28;20671;-66
2021/09/19 10:05:34;;;;;;;0.20;0.10;;;23.70;99.90;;;;;;21104589;28;20253;-69
2021/09/19 10:15:40;;;;;;;0.25;0.25;;;23.90;99.90;;;;;;21104323;28;20528;-68
2021/09/19 10:25:49;;;;;;;0.30;0.20;;;24.20;99.90;;;;;;21044515;28;20231;-68
2021/09/19 10:36:00;;;;;;;0.30;0.22;;;24.30;99.90;;;;;;21031230;28;20200;-68
2021/09/19 10:46:04;;;;;;;0.77;0.35;;;24.40;99.90;;;;;;21019974;28;20219;-66
2021/09/19 10:56:10;;;;;;;0.65;0.32;;;24.80;99.90;;;;;;21031215;28;20601;-66
2021/09/19 11:06:28;;;;;;;0.38;0.22;;;25.20;99.90;;;;;;21091628;28;20675;-67
2021/09/19 11:16:37;;;;;;;0.20;0.10;;;26.30;99.90;;;;;;21100283;28;20509;-67
2021/09/19 11:26:43;;;;;;;1.45;0.40;;;27.30;99.90;;;;;;21097855;28;20223;-64
2021/09/19 11:36:50;;;;;;;0.50;0.28;;;26.60;99.90;;;;;;21096457;28;20219;-66
2021/09/19 11:46:54;;;;;;;0.80;0.30;;;28.00;99.90;;;;;;21124441;28;20231;-66
2021/09/19 11:57:00;;;;;;;0.43;0.43;;;27.90;99.90;;;;;;21128126;28;20267;-67
2021/09/19 12:07:06;;;;;;;0.20;0.20;;;28.50;99.90;;;;;;21112872;28;20591;-68
2021/09/19 12:17:12;;;;;;;0.50;0.13;;;28.80;99.90;;;;;;21112632;28;20425;-68
2021/09/19 12:27:18;;;;;;;1.02;0.40;;;29.50;99.90;;;;;;21034864;28;20216;-68
2021/09/19 12:37:24;;;;;;;0.82;0.40;;;30.30;99.90;;;;;;21025839;28;20200;-67
2021/09/19 12:47:31;;;;;;;0.38;0.35;;;30.00;99.90;;;;;;21024838;28;20228;-68
2021/09/19 12:57:37;;;;;;;4.90;0.68;;;29.40;99.90;;;;;;21017906;28;20203;-68
2021/09/19 13:07:42;;;;;;;0.20;0.20;;;28.80;99.90;;;;;;21099988;28;20621;-68
2021/09/19 13:17:47;;;;;;;0.20;0.10;;;29.30;99.90;;;;;;21149914;28;20199;-67
2021/09/19 13:27:51;;;;;;;0.20;0.10;;;29.20;99.90;;;;;;21150753;28;20228;-69
2021/09/19 13:37:56;;;;;;;0.20;0.10;;;30.20;99.90;;;;;;21149422;28;20221;-68
2021/09/19 13:48:01;;;;;;;0.30;0.10;;;29.80;99.90;;;;;;21152420;28;20298;-70
2021/09/19 13:58:06;;;;;;;0.85;0.43;;;30.50;99.90;;;;;;21153012;28;20689;-67
2021/09/19 14:08:11;;;;;;;0.25;0.03;;;30.60;99.90;;;;;;21149257;28;20223;-69
2021/09/19 14:18:17;;;;;;;0.20;0.20;;;30.30;99.90;;;;;;21147240;28;20209;-70
2021/09/19 14:28:20;;;;;;;0.20;0.10;;;30.50;99.90;;;;;;21074918;28;20242;-69
2021/09/19 14:38:26;;;;;;;2.05;0.28;;;30.30;99.90;;;;;;21078702;28;20215;-68
2021/09/19 14:48:29;;;;;;;0.20;0.00;;;29.50;99.90;;;;;;21078656;28;20688;-69
2021/09/19 14:58:35;;;;;;;1.42;0.35;;;30.50;99.90;;;;;;21077932;28;20198;-69
2021/09/19 15:08:41;;;;;;;2.55;0.63;;;29.80;99.90;;;;;;21152254;28;20326;-69
2021/09/19 15:18:47;;;;;;;1.05;0.32;;;29.30;99.90;;;;;;21161139;28;20219;-66
2021/09/19 15:28:50;;;;;;;2.83;0.55;;;29.50;99.90;;;;;;21141421;28;20676;-67
2021/09/19 15:38:55;;;;;;;0.90;0.52;;;29.10;99.90;;;;;;21157741;28;20211;-67
2021/09/19 15:49:03;;;;;;;4.15;0.65;;;27.90;99.90;;;;;;21157023;28;20295;-68
2021/09/19 15:59:08;;;;;;;0.30;0.20;;;27.20;99.90;;;;;;21138490;28;20286;-67
2021/09/19 16:09:12;;;;;;;0.25;0.05;;;25.90;99.90;;;;;;21155692;28;20825;-68
2021/09/19 16:19:17;;;;;;;1.45;0.20;;;25.10;99.90;;;;;;21146202;28;20658;-68
2021/09/19 16:29:21;;;;;;;0.47;0.30;;;25.00;99.90;;;;;;21070523;28;20231;-68
2021/09/19 16:39:29;;;;;;;2.55;0.55;;;24.80;99.90;;;;;;21069421;28;20184;-68
2021/09/19 16:49:33;;;;;;;0.20;0.00;;;24.50;99.90;;;;;;21067975;28;20238;-68
2021/09/19 16:59:38;;;;;;;0.65;0.40;;;24.30;99.90;;;;;;21067680;28;20299;-67
2021/09/19 17:09:43;;;;;;;15.52;0.82;;;24.30;99.90;;;;;;21154164;28;20230;-69
2021/09/19 17:19:49;;;;;;;0.50;0.40;;;23.90;99.90;;;;;;21155425;28;20630;-68
2021/09/19 17:29:53;;;;;;;0.68;0.45;;;23.70;99.90;;;;;;21151818;28;20672;-68
2021/09/19 17:39:58;;;;;;;0.70;0.50;;;23.60;99.90;;;;;;21150680;28;20614;-67
2021/09/19 17:50:02;;;;;;;6.43;0.55;;;23.40;99.90;;;;;;21149816;28;20362;-66
2021/09/19 18:00:08;;;;;;;0.50;0.50;;;23.50;99.90;;;;;;21155784;28;20647;-67
2021/09/19 18:10:12;;;;;;;0.30;0.20;;;23.40;99.90;;;;;;21167735;28;20355;-66
2021/09/19 18:20:17;;;;;;;0.40;0.25;;;23.20;99.90;;;;;;21129525;28;20295;-68
2021/09/19 18:30:21;;;;;;;0.20;0.00;;;23.20;99.90;;;;;;21081503;28;20669;-68
2021/09/19 18:40:27;;;;;;;0.70;0.32;;;23.20;99.90;;;;;;21081126;28;20245;-69
2021/09/19 18:50:30;;;;;;;0.20;0.10;;;23.20;99.90;;;;;;21078344;28;20318;-68
2021/09/19 19:00:36;;;;;;;3.13;0.90;;;23.20;99.90;;;;;;21085259;28;20323;-67
2021/09/19 19:10:42;;;;;;;0.40;0.20;;;23.20;99.90;;;;;;21143651;28;20219;-68
2021/09/19 19:20:47;;;;;;;1.08;0.75;;;23.10;99.90;;;;;;21161844;28;20187;-67
2021/09/19 19:31:00;;;;;;;1.75;0.77;;;23.10;99.90;;;;;;21160900;28;20215;-68
2021/09/19 19:41:27;;;;;;;0.20;0.13;;;22.60;99.90;;;;;;21157808;28;20203;-68
2021/09/19 19:51:35;;;;;;;0.30;0.20;;;21.90;99.90;;;;;;21160809;28;20618;-68
2021/09/19 20:01:42;;;;;;;1.27;1.17;;;21.10;99.90;;;;;;21143227;28;20223;-66
2021/09/19 20:12:04;;;;;;;0.33;0.33;;;21.00;99.90;;;;;;21158467;28;20727;-68
2021/09/19 20:22:15;;;;;;;0.40;0.37;;;20.90;99.90;;;;;;21122491;28;20638;-67
2021/09/19 20:32:19;;;;;;;4.33;1.17;;;20.80;99.90;;;;;;21071727;28;20220;-69
2021/09/19 20:42:27;;;;;;;0.20;0.10;;;20.70;99.90;;;;;;21071157;28;20195;-66
2021/09/19 20:52:32;;;;;;;0.30;0.20;;;20.60;99.90;;;;;;21070244;28;20224;-68
2021/09/19 21:02:43;;;;;;;2.13;0.47;;;20.50;99.90;;;;;;21101868;28;20784;-68
2021/09/19 21:12:48;;;;;;;0.77;0.70;;;20.30;99.90;;;;;;21135549;28;20309;-68
2021/09/19 21:23:00;;;;;;;1.53;1.40;;;20.40;99.90;;;;;;21153017;28;20532;-69
2021/09/19 21:33:05;;;;;;;2.23;1.90;;;20.20;99.90;;;;;;21151586;28;20733;-69
2021/09/19 21:43:10;;;;;;;2.50;2.10;;;20.20;99.90;;;;;;21132688;28;20199;-69
2021/09/19 21:53:14;;;;;;;2.57;0.97;;;20.20;99.90;;;;;;21150831;28;20229;-68
2021/09/19 22:03:20;;;;;;;0.37;0.37;;;20.20;99.90;;;;;;21151033;28;20223;-67
2021/09/19 22:13:34;;;;;;;0.20;0.10;;;20.20;99.90;;;;;;21150212;28;20701;-68
2021/09/19 22:23:39;;;;;;;1.63;0.53;;;20.10;99.90;;;;;;21103229;28;20184;-67
2021/09/19 22:33:43;;;;;;;0.27;0.13;;;19.90;99.90;;;;;;21065411;28;20270;-67
2021/09/19 22:43:48;;;;;;;0.90;0.53;;;19.80;99.90;;;;;;21081995;28;20200;-67
2021/09/19 22:53:51;;;;;;;0.20;0.07;;;19.80;99.90;;;;;;21079547;28;20265;-67
2021/09/19 23:03:56;;;;;;;0.20;0.20;;;19.60;99.90;;;;;;21112922;28;20261;-67
2021/09/19 23:14:00;;;;;;;0.57;0.33;;;19.50;99.90;;;;;;21161749;28;20745;-67
2021/09/19 23:24:06;;;;;;;0.47;0.27;;;19.50;99.90;;;;;;21161063;28;20202;-68
2021/09/19 23:34:09;;;;;;;0.73;0.07;;;19.30;99.90;;;;;;21160457;28;20258;-68
2021/09/19 23:44:14;;;;;;;0.20;0.10;;;19.30;99.90;;;;;;21160578;28;20249;-67
2021/09/19 23:54:18;;;;;;;0.20;0.20;;;19.60;99.90;;;;;;21159332;28;20223;-67
